sensor_id;sensor_type;location;lat;lon;timestamp;P1;durP1;ratioP1;P2;durP2;ratioP2
4638;SDS011;2332;38.646;-9.154;2022-07-29T00:00:43;1.13;;;1.03;;
4638;SDS011;2332;38.646;-9.154;2022-07-29T00:03:10;2.77;;;1.17;;
4638;SDS011;2332;38.646;-9.154;2022-07-29T00:05:37;3.93;;;1.27;;
4638;SDS011;2332;38.646;-9.154;2022-07-29T00:08:04;1.77;;;1.00;;
4638;SDS011;2332;38.646;-9.154;2022-07-29T00:10:30;4.43;;;1.27;;
4638;SDS011;2332;38.646;-9.154;2022-07-29T00:12:55;2.97;;;1.33;;
4638;SDS011;2332;38.646;-9.154;2022-07-29T00:15:21;1.93;;;1.00;;
4638;SDS011;2332;38.646;-9.154;2022-07-29T00:17:47;2.67;;;1.30;;
4638;SDS011;2332;38.646;-9.154;2022-07-29T00:20:12;5.03;;;1.50;;
4638;SDS011;2332;38.646;-9.154;2022-07-29T00:22:38;2.70;;;1.10;;
4638;SDS011;2332;38.646;-9.154;2022-07-29T00:25:04;3.90;;;1.30;;
4638;SDS011;2332;38.646;-9.154;2022-07-29T00:27:31;4.87;;;1.13;;
4638;SDS011;2332;38.646;-9.154;2022-07-29T00:29:56;4.40;;;1.27;;
4638;SDS011;2332;38.646;-9.154;2022-07-29T00:32:22;2.87;;;1.00;;
4638;SDS011;2332;38.646;-9.154;2022-07-29T00:34:49;2.50;;;1.40;;
4638;SDS011;2332;38.646;-9.154;2022-07-29T00:37:37;4.93;;;1.20;;
4638;SDS011;2332;38.646;-9.154;2022-07-29T00:40:03;1.83;;;1.47;;
4638;SDS011;2332;38.646;-9.154;2022-07-29T00:42:46;4.10;;;1.33;;
4638;SDS011;2332;38.646;-9.154;2022-07-29T00:45:27;1.97;;;1.30;;
4638;SDS011;2332;38.646;-9.154;2022-07-29T00:47:55;2.40;;;1.43;;
4638;SDS011;2332;38.646;-9.154;2022-07-29T00:50:23;3.67;;;1.20;;
4638;SDS011;2332;38.646;-9.154;2022-07-29T00:52:50;4.50;;;1.40;;
4638;SDS011;2332;38.646;-9.154;2022-07-29T00:55:17;2.00;;;1.17;;
4638;SDS011;2332;38.646;-9.154;2022-07-29T00:57:51;3.67;;;1.80;;
4638;SDS011;2332;38.646;-9.154;2022-07-29T01:00:19;1.13;;;1.03;;
4638;SDS011;2332;38.646;-9.154;2022-07-29T01:02:46;5.67;;;1.60;;
4638;SDS011;2332;38.646;-9.154;2022-07-29T01:05:16;5.30;;;1.60;;
4638;SDS011;2332;38.646;-9.154;2022-07-29T01:07:43;6.00;;;1.50;;
4638;SDS011;2332;38.646;-9.154;2022-07-29T01:10:10;2.50;;;1.50;;
4638;SDS011;2332;38.646;-9.154;2022-07-29T01:12:38;2.80;;;1.43;;
4638;SDS011;2332;38.646;-9.154;2022-07-29T01:15:05;3.03;;;1.70;;
4638;SDS011;2332;38.646;-9.154;2022-07-29T01:17:52;5.17;;;1.90;;
4638;SDS011;2332;38.646;-9.154;2022-07-29T01:26:23;6.30;;;2.60;;
4638;SDS011;2332;38.646;-9.154;2022-07-29T01:29:04;3.40;;;2.00;;
4638;SDS011;2332;38.646;-9.154;2022-07-29T01:31:51;3.23;;;2.17;;
4638;SDS011;2332;38.646;-9.154;2022-07-29T01:34:23;3.17;;;1.80;;
4638;SDS011;2332;38.646;-9.154;2022-07-29T01:39:31;4.27;;;2.30;;
4638;SDS011;2332;38.646;-9.154;2022-07-29T01:42:05;5.23;;;2.23;;
4638;SDS011;2332;38.646;-9.154;2022-07-29T01:45:07;8.20;;;2.57;;
4638;SDS011;2332;38.646;-9.154;2022-07-29T01:47:34;3.30;;;2.17;;
4638;SDS011;2332;38.646;-9.154;2022-07-29T01:50:06;3.50;;;2.20;;
4638;SDS011;2332;38.646;-9.154;2022-07-29T01:52:36;4.30;;;2.23;;
4638;SDS011;2332;38.646;-9.154;2022-07-29T01:55:09;4.67;;;2.60;;
4638;SDS011;2332;38.646;-9.154;2022-07-29T01:57:38;5.00;;;2.63;;
4638;SDS011;2332;38.646;-9.154;2022-07-29T02:00:10;6.20;;;2.43;;
4638;SDS011;2332;38.646;-9.154;2022-07-29T02:02:37;3.50;;;3.00;;
4638;SDS011;2332;38.646;-9.154;2022-07-29T02:05:05;5.27;;;2.57;;
4638;SDS011;2332;38.646;-9.154;2022-07-29T02:07:46;10.90;;;2.60;;
4638;SDS011;2332;38.646;-9.154;2022-07-29T02:10:12;9.10;;;3.40;;
4638;SDS011;2332;38.646;-9.154;2022-07-29T02:12:39;8.17;;;3.30;;
4638;SDS011;2332;38.646;-9.154;2022-07-29T02:15:06;2.57;;;2.37;;
4638;SDS011;2332;38.646;-9.154;2022-07-29T02:17:37;2.77;;;2.50;;
4638;SDS011;2332;38.646;-9.154;2022-07-29T02:20:06;2.93;;;2.70;;
4638;SDS011;2332;38.646;-9.154;2022-07-29T02:22:33;5.27;;;3.00;;
4638;SDS011;2332;38.646;-9.154;2022-07-29T02:25:01;3.33;;;2.60;;
4638;SDS011;2332;38.646;-9.154;2022-07-29T02:27:26;6.70;;;2.97;;
4638;SDS011;2332;38.646;-9.154;2022-07-29T02:29:53;3.87;;;2.60;;
4638;SDS011;2332;38.646;-9.154;2022-07-29T02:32:28;6.37;;;3.20;;
4638;SDS011;2332;38.646;-9.154;2022-07-29T02:34:55;9.40;;;3.00;;
4638;SDS011;2332;38.646;-9.154;2022-07-29T02:37:21;5.90;;;2.87;;
4638;SDS011;2332;38.646;-9.154;2022-07-29T02:39:48;3.70;;;2.60;;
4638;SDS011;2332;38.646;-9.154;2022-07-29T02:42:18;4.80;;;3.23;;
4638;SDS011;2332;38.646;-9.154;2022-07-29T02:44:44;5.60;;;3.13;;
4638;SDS011;2332;38.646;-9.154;2022-07-29T02:47:16;3.27;;;2.47;;
4638;SDS011;2332;38.646;-9.154;2022-07-29T02:50:22;4.00;;;2.70;;
4638;SDS011;2332;38.646;-9.154;2022-07-29T02:56:25;6.27;;;3.53;;
4638;SDS011;2332;38.646;-9.154;2022-07-29T02:58:32;4.90;;;3.13;;
4638;SDS011;2332;38.646;-9.154;2022-07-29T03:01:01;5.77;;;3.83;;
4638;SDS011;2332;38.646;-9.154;2022-07-29T03:03:30;4.77;;;3.47;;
4638;SDS011;2332;38.646;-9.154;2022-07-29T03:06:01;4.93;;;3.40;;
4638;SDS011;2332;38.646;-9.154;2022-07-29T03:08:27;9.33;;;4.20;;
4638;SDS011;2332;38.646;-9.154;2022-07-29T03:10:53;10.87;;;3.40;;
4638;SDS011;2332;38.646;-9.154;2022-07-29T03:13:20;4.77;;;3.17;;
4638;SDS011;2332;38.646;-9.154;2022-07-29T03:15:46;7.23;;;3.60;;
4638;SDS011;2332;38.646;-9.154;2022-07-29T03:18:12;7.90;;;3.70;;
4638;SDS011;2332;38.646;-9.154;2022-07-29T03:20:39;3.53;;;3.23;;
4638;SDS011;2332;38.646;-9.154;2022-07-29T03:23:05;3.20;;;2.90;;
4638;SDS011;2332;38.646;-9.154;2022-07-29T03:25:31;6.23;;;2.97;;
4638;SDS011;2332;38.646;-9.154;2022-07-29T03:27:57;7.07;;;3.37;;
4638;SDS011;2332;38.646;-9.154;2022-07-29T03:30:23;3.77;;;3.37;;
4638;SDS011;2332;38.646;-9.154;2022-07-29T03:32:49;5.03;;;3.97;;
4638;SDS011;2332;38.646;-9.154;2022-07-29T03:35:15;8.47;;;3.03;;
4638;SDS011;2332;38.646;-9.154;2022-07-29T03:37:42;5.77;;;3.43;;
4638;SDS011;2332;38.646;-9.154;2022-07-29T03:40:08;6.03;;;3.50;;
4638;SDS011;2332;38.646;-9.154;2022-07-29T03:42:36;4.00;;;3.57;;
4638;SDS011;2332;38.646;-9.154;2022-07-29T03:45:05;4.47;;;3.97;;
4638;SDS011;2332;38.646;-9.154;2022-07-29T03:47:32;5.70;;;3.27;;
4638;SDS011;2332;38.646;-9.154;2022-07-29T03:50:05;3.43;;;3.23;;
4638;SDS011;2332;38.646;-9.154;2022-07-29T03:52:32;6.33;;;3.43;;
4638;SDS011;2332;38.646;-9.154;2022-07-29T03:54:58;8.83;;;3.60;;
4638;SDS011;2332;38.646;-9.154;2022-07-29T03:57:25;3.37;;;3.07;;
4638;SDS011;2332;38.646;-9.154;2022-07-29T03:59:52;3.37;;;3.17;;
4638;SDS011;2332;38.646;-9.154;2022-07-29T04:02:18;5.70;;;3.93;;
4638;SDS011;2332;38.646;-9.154;2022-07-29T04:04:44;5.27;;;3.67;;
4638;SDS011;2332;38.646;-9.154;2022-07-29T04:07:13;6.83;;;3.80;;
4638;SDS011;2332;38.646;-9.154;2022-07-29T04:09:40;5.80;;;3.90;;
4638;SDS011;2332;38.646;-9.154;2022-07-29T04:12:06;6.20;;;3.10;;
4638;SDS011;2332;38.646;-9.154;2022-07-29T04:14:32;6.70;;;3.00;;
4638;SDS011;2332;38.646;-9.154;2022-07-29T04:16:58;6.60;;;3.73;;
4638;SDS011;2332;38.646;-9.154;2022-07-29T04:19:24;6.90;;;3.60;;
4638;SDS011;2332;38.646;-9.154;2022-07-29T04:21:49;4.23;;;3.60;;
4638;SDS011;2332;38.646;-9.154;2022-07-29T04:24:15;3.40;;;3.10;;
4638;SDS011;2332;38.646;-9.154;2022-07-29T04:26:41;5.57;;;3.63;;
4638;SDS011;2332;38.646;-9.154;2022-07-29T04:29:07;3.30;;;3.00;;
4638;SDS011;2332;38.646;-9.154;2022-07-29T04:31:32;4.17;;;3.67;;
4638;SDS011;2332;38.646;-9.154;2022-07-29T04:33:58;4.00;;;3.20;;
4638;SDS011;2332;38.646;-9.154;2022-07-29T04:36:23;6.40;;;3.20;;
4638;SDS011;2332;38.646;-9.154;2022-07-29T04:38:49;4.30;;;3.43;;
4638;SDS011;2332;38.646;-9.154;2022-07-29T04:41:15;6.33;;;3.37;;
4638;SDS011;2332;38.646;-9.154;2022-07-29T04:43:40;3.83;;;2.87;;
4638;SDS011;2332;38.646;-9.154;2022-07-29T04:46:06;5.83;;;3.70;;
4638;SDS011;2332;38.646;-9.154;2022-07-29T04:48:32;4.93;;;3.43;;
4638;SDS011;2332;38.646;-9.154;2022-07-29T04:50:58;5.20;;;3.90;;
4638;SDS011;2332;38.646;-9.154;2022-07-29T04:53:24;3.80;;;3.50;;
4638;SDS011;2332;38.646;-9.154;2022-07-29T04:55:49;6.40;;;3.77;;
4638;SDS011;2332;38.646;-9.154;2022-07-29T04:58:15;6.13;;;3.83;;
4638;SDS011;2332;38.646;-9.154;2022-07-29T05:00:41;5.20;;;3.70;;
4638;SDS011;2332;38.646;-9.154;2022-07-29T05:03:06;5.27;;;4.30;;
4638;SDS011;2332;38.646;-9.154;2022-07-29T05:05:32;5.73;;;3.80;;
4638;SDS011;2332;38.646;-9.154;2022-07-29T05:07:58;5.27;;;3.10;;
4638;SDS011;2332;38.646;-9.154;2022-07-29T05:10:23;5.20;;;3.13;;
4638;SDS011;2332;38.646;-9.154;2022-07-29T05:12:49;5.93;;;3.67;;
4638;SDS011;2332;38.646;-9.154;2022-07-29T05:15:15;3.07;;;2.87;;
4638;SDS011;2332;38.646;-9.154;2022-07-29T05:17:42;3.83;;;3.50;;
4638;SDS011;2332;38.646;-9.154;2022-07-29T05:20:08;3.53;;;3.33;;
4638;SDS011;2332;38.646;-9.154;2022-07-29T05:22:34;5.90;;;3.40;;
4638;SDS011;2332;38.646;-9.154;2022-07-29T05:25:00;6.10;;;3.53;;
4638;SDS011;2332;38.646;-9.154;2022-07-29T05:27:25;4.60;;;3.53;;
4638;SDS011;2332;38.646;-9.154;2022-07-29T05:29:51;3.73;;;3.40;;
4638;SDS011;2332;38.646;-9.154;2022-07-29T05:32:17;5.90;;;3.93;;
4638;SDS011;2332;38.646;-9.154;2022-07-29T05:34:42;5.73;;;3.37;;
4638;SDS011;2332;38.646;-9.154;2022-07-29T05:37:08;3.83;;;3.53;;
4638;SDS011;2332;38.646;-9.154;2022-07-29T05:39:33;4.13;;;3.53;;
4638;SDS011;2332;38.646;-9.154;2022-07-29T05:41:59;7.13;;;3.63;;
4638;SDS011;2332;38.646;-9.154;2022-07-29T05:44:24;7.43;;;4.07;;
4638;SDS011;2332;38.646;-9.154;2022-07-29T05:46:50;4.20;;;3.80;;
4638;SDS011;2332;38.646;-9.154;2022-07-29T05:49:16;4.50;;;3.80;;
4638;SDS011;2332;38.646;-9.154;2022-07-29T05:51:42;4.20;;;3.80;;
4638;SDS011;2332;38.646;-9.154;2022-07-29T05:54:07;4.00;;;3.60;;
4638;SDS011;2332;38.646;-9.154;2022-07-29T05:56:35;3.57;;;3.37;;
4638;SDS011;2332;38.646;-9.154;2022-07-29T05:59:01;5.90;;;3.60;;
4638;SDS011;2332;38.646;-9.154;2022-07-29T06:01:27;3.53;;;3.20;;
4638;SDS011;2332;38.646;-9.154;2022-07-29T06:03:52;3.50;;;3.20;;
4638;SDS011;2332;38.646;-9.154;2022-07-29T06:06:18;3.70;;;3.40;;
4638;SDS011;2332;38.646;-9.154;2022-07-29T06:08:44;4.57;;;2.93;;
4638;SDS011;2332;38.646;-9.154;2022-07-29T06:11:09;3.60;;;2.80;;
4638;SDS011;2332;38.646;-9.154;2022-07-29T06:13:35;2.50;;;2.40;;
4638;SDS011;2332;38.646;-9.154;2022-07-29T06:16:00;3.90;;;3.00;;
4638;SDS011;2332;38.646;-9.154;2022-07-29T06:18:26;6.50;;;3.70;;
4638;SDS011;2332;38.646;-9.154;2022-07-29T06:20:55;3.83;;;3.20;;
4638;SDS011;2332;38.646;-9.154;2022-07-29T06:23:21;6.10;;;3.13;;
4638;SDS011;2332;38.646;-9.154;2022-07-29T06:25:47;6.40;;;3.30;;
4638;SDS011;2332;38.646;-9.154;2022-07-29T06:28:13;9.30;;;3.07;;
4638;SDS011;2332;38.646;-9.154;2022-07-29T06:30:39;3.67;;;3.27;;
4638;SDS011;2332;38.646;-9.154;2022-07-29T06:33:05;3.03;;;2.83;;
4638;SDS011;2332;38.646;-9.154;2022-07-29T06:35:33;3.40;;;2.90;;
4638;SDS011;2332;38.646;-9.154;2022-07-29T06:38:00;2.57;;;2.37;;
4638;SDS011;2332;38.646;-9.154;2022-07-29T06:40:26;6.03;;;2.80;;
4638;SDS011;2332;38.646;-9.154;2022-07-29T06:43:17;5.97;;;3.10;;
4638;SDS011;2332;38.646;-9.154;2022-07-29T06:45:43;5.00;;;2.63;;
4638;SDS011;2332;38.646;-9.154;2022-07-29T06:48:09;4.03;;;2.63;;
4638;SDS011;2332;38.646;-9.154;2022-07-29T06:50:35;27.70;;;4.03;;
4638;SDS011;2332;38.646;-9.154;2022-07-29T06:53:00;2.90;;;2.70;;
4638;SDS011;2332;38.646;-9.154;2022-07-29T06:55:26;5.97;;;3.10;;
4638;SDS011;2332;38.646;-9.154;2022-07-29T06:57:51;3.57;;;2.30;;
4638;SDS011;2332;38.646;-9.154;2022-07-29T07:00:17;6.13;;;3.07;;
4638;SDS011;2332;38.646;-9.154;2022-07-29T07:02:42;5.80;;;3.07;;
4638;SDS011;2332;38.646;-9.154;2022-07-29T07:05:11;5.73;;;2.97;;
4638;SDS011;2332;38.646;-9.154;2022-07-29T07:07:36;5.07;;;2.83;;
4638;SDS011;2332;38.646;-9.154;2022-07-29T07:10:02;3.07;;;2.83;;
4638;SDS011;2332;38.646;-9.154;2022-07-29T07:12:28;3.20;;;2.87;;
4638;SDS011;2332;38.646;-9.154;2022-07-29T07:14:53;9.90;;;3.20;;
4638;SDS011;2332;38.646;-9.154;2022-07-29T07:17:19;3.23;;;2.97;;
4638;SDS011;2332;38.646;-9.154;2022-07-29T07:19:44;5.43;;;2.80;;
4638;SDS011;2332;38.646;-9.154;2022-07-29T07:22:10;4.97;;;3.27;;
4638;SDS011;2332;38.646;-9.154;2022-07-29T07:24:36;5.60;;;2.87;;
4638;SDS011;2332;38.646;-9.154;2022-07-29T07:27:01;4.37;;;3.13;;
4638;SDS011;2332;38.646;-9.154;2022-07-29T07:29:27;4.07;;;2.40;;
4638;SDS011;2332;38.646;-9.154;2022-07-29T07:31:52;3.97;;;2.67;;
4638;SDS011;2332;38.646;-9.154;2022-07-29T07:34:19;5.83;;;2.87;;
4638;SDS011;2332;38.646;-9.154;2022-07-29T07:36:44;4.60;;;2.60;;
4638;SDS011;2332;38.646;-9.154;2022-07-29T07:39:10;6.20;;;2.97;;
4638;SDS011;2332;38.646;-9.154;2022-07-29T07:41:35;4.63;;;3.10;;
4638;SDS011;2332;38.646;-9.154;2022-07-29T07:44:01;4.97;;;2.70;;
4638;SDS011;2332;38.646;-9.154;2022-07-29T07:46:27;5.70;;;2.80;;
4638;SDS011;2332;38.646;-9.154;2022-07-29T07:48:52;4.23;;;3.13;;
4638;SDS011;2332;38.646;-9.154;2022-07-29T07:51:18;2.77;;;2.20;;
4638;SDS011;2332;38.646;-9.154;2022-07-29T07:53:43;3.33;;;2.17;;
4638;SDS011;2332;38.646;-9.154;2022-07-29T07:56:09;2.93;;;2.57;;
4638;SDS011;2332;38.646;-9.154;2022-07-29T07:58:35;3.70;;;3.40;;
4638;SDS011;2332;38.646;-9.154;2022-07-29T08:01:01;7.17;;;2.63;;
4638;SDS011;2332;38.646;-9.154;2022-07-29T08:03:26;5.43;;;3.07;;
4638;SDS011;2332;38.646;-9.154;2022-07-29T08:05:52;14.43;;;3.40;;
4638;SDS011;2332;38.646;-9.154;2022-07-29T08:08:19;3.13;;;2.60;;
4638;SDS011;2332;38.646;-9.154;2022-07-29T08:10:45;3.97;;;2.80;;
4638;SDS011;2332;38.646;-9.154;2022-07-29T08:13:17;3.73;;;2.67;;
4638;SDS011;2332;38.646;-9.154;2022-07-29T08:15:44;5.93;;;2.83;;
4638;SDS011;2332;38.646;-9.154;2022-07-29T08:18:11;20.83;;;3.50;;
4638;SDS011;2332;38.646;-9.154;2022-07-29T08:20:37;3.37;;;2.83;;
4638;SDS011;2332;38.646;-9.154;2022-07-29T08:23:04;4.70;;;2.57;;
4638;SDS011;2332;38.646;-9.154;2022-07-29T08:25:31;3.90;;;2.70;;
4638;SDS011;2332;38.646;-9.154;2022-07-29T08:27:58;4.87;;;2.80;;
4638;SDS011;2332;38.646;-9.154;2022-07-29T08:30:24;4.50;;;2.90;;
4638;SDS011;2332;38.646;-9.154;2022-07-29T08:32:50;2.87;;;2.53;;
4638;SDS011;2332;38.646;-9.154;2022-07-29T08:35:18;6.77;;;3.50;;
4638;SDS011;2332;38.646;-9.154;2022-07-29T08:37:45;6.53;;;2.53;;
4638;SDS011;2332;38.646;-9.154;2022-07-29T08:40:11;15.10;;;2.60;;
4638;SDS011;2332;38.646;-9.154;2022-07-29T08:42:37;6.13;;;3.03;;
4638;SDS011;2332;38.646;-9.154;2022-07-29T08:45:03;3.03;;;2.50;;
4638;SDS011;2332;38.646;-9.154;2022-07-29T08:47:29;9.43;;;2.67;;
4638;SDS011;2332;38.646;-9.154;2022-07-29T08:49:55;4.73;;;2.73;;
4638;SDS011;2332;38.646;-9.154;2022-07-29T08:52:21;2.70;;;2.50;;
4638;SDS011;2332;38.646;-9.154;2022-07-29T08:54:50;7.07;;;2.63;;
4638;SDS011;2332;38.646;-9.154;2022-07-29T08:57:17;6.07;;;2.80;;
4638;SDS011;2332;38.646;-9.154;2022-07-29T08:59:43;8.07;;;3.00;;
4638;SDS011;2332;38.646;-9.154;2022-07-29T09:02:12;10.03;;;3.57;;
4638;SDS011;2332;38.646;-9.154;2022-07-29T09:04:44;4.17;;;2.97;;
4638;SDS011;2332;38.646;-9.154;2022-07-29T09:07:10;6.03;;;3.17;;
4638;SDS011;2332;38.646;-9.154;2022-07-29T09:09:40;4.33;;;2.90;;
4638;SDS011;2332;38.646;-9.154;2022-07-29T09:12:06;4.90;;;3.00;;
4638;SDS011;2332;38.646;-9.154;2022-07-29T09:14:33;3.40;;;2.73;;
4638;SDS011;2332;38.646;-9.154;2022-07-29T09:16:59;5.50;;;3.83;;
4638;SDS011;2332;38.646;-9.154;2022-07-29T09:19:32;3.87;;;3.00;;
4638;SDS011;2332;38.646;-9.154;2022-07-29T09:22:00;3.30;;;2.80;;
4638;SDS011;2332;38.646;-9.154;2022-07-29T09:27:01;6.07;;;2.97;;
4638;SDS011;2332;38.646;-9.154;2022-07-29T09:29:27;7.90;;;2.97;;
4638;SDS011;2332;38.646;-9.154;2022-07-29T09:31:53;3.10;;;2.70;;
4638;SDS011;2332;38.646;-9.154;2022-07-29T09:34:26;6.43;;;3.20;;
4638;SDS011;2332;38.646;-9.154;2022-07-29T09:36:56;4.53;;;3.10;;
4638;SDS011;2332;38.646;-9.154;2022-07-29T09:39:29;5.10;;;3.40;;
4638;SDS011;2332;38.646;-9.154;2022-07-29T09:41:56;3.30;;;3.00;;
4638;SDS011;2332;38.646;-9.154;2022-07-29T09:44:24;7.30;;;3.20;;
4638;SDS011;2332;38.646;-9.154;2022-07-29T09:46:57;5.87;;;3.17;;
4638;SDS011;2332;38.646;-9.154;2022-07-29T09:49:30;7.13;;;3.13;;
4638;SDS011;2332;38.646;-9.154;2022-07-29T09:52:00;4.30;;;3.30;;
4638;SDS011;2332;38.646;-9.154;2022-07-29T09:54:26;8.47;;;2.90;;
4638;SDS011;2332;38.646;-9.154;2022-07-29T09:56:52;3.00;;;2.80;;
4638;SDS011;2332;38.646;-9.154;2022-07-29T09:59:20;3.00;;;2.80;;
4638;SDS011;2332;38.646;-9.154;2022-07-29T10:01:48;8.90;;;3.10;;
4638;SDS011;2332;38.646;-9.154;2022-07-29T10:04:15;4.70;;;3.20;;
4638;SDS011;2332;38.646;-9.154;2022-07-29T10:06:59;3.57;;;3.00;;
4638;SDS011;2332;38.646;-9.154;2022-07-29T10:09:26;3.53;;;3.23;;
4638;SDS011;2332;38.646;-9.154;2022-07-29T10:14:47;3.00;;;2.70;;
4638;SDS011;2332;38.646;-9.154;2022-07-29T10:17:14;4.20;;;3.53;;
4638;SDS011;2332;38.646;-9.154;2022-07-29T10:19:41;3.43;;;2.73;;
4638;SDS011;2332;38.646;-9.154;2022-07-29T10:22:10;5.70;;;3.27;;
4638;SDS011;2332;38.646;-9.154;2022-07-29T10:24:40;4.40;;;3.00;;
4638;SDS011;2332;38.646;-9.154;2022-07-29T10:27:06;3.47;;;3.00;;
4638;SDS011;2332;38.646;-9.154;2022-07-29T10:29:33;4.13;;;3.60;;
4638;SDS011;2332;38.646;-9.154;2022-07-29T10:41:13;6.03;;;3.43;;
4638;SDS011;2332;38.646;-9.154;2022-07-29T10:43:53;3.57;;;3.37;;
4638;SDS011;2332;38.646;-9.154;2022-07-29T10:46:20;3.60;;;2.50;;
4638;SDS011;2332;38.646;-9.154;2022-07-29T11:07:23;8.23;;;3.10;;
4638;SDS011;2332;38.646;-9.154;2022-07-29T11:15:16;11.60;;;3.93;;
4638;SDS011;2332;38.646;-9.154;2022-07-29T11:28:59;7.43;;;2.87;;
4638;SDS011;2332;38.646;-9.154;2022-07-29T11:31:35;4.00;;;2.73;;
4638;SDS011;2332;38.646;-9.154;2022-07-29T11:34:19;5.13;;;2.70;;
4638;SDS011;2332;38.646;-9.154;2022-07-29T11:39:32;5.60;;;3.17;;
4638;SDS011;2332;38.646;-9.154;2022-07-29T11:42:41;2.37;;;2.20;;
4638;SDS011;2332;38.646;-9.154;2022-07-29T11:45:03;4.80;;;2.97;;
4638;SDS011;2332;38.646;-9.154;2022-07-29T11:47:31;6.30;;;2.70;;
4638;SDS011;2332;38.646;-9.154;2022-07-29T11:49:58;2.80;;;2.70;;
4638;SDS011;2332;38.646;-9.154;2022-07-29T11:52:35;5.03;;;2.90;;
4638;SDS011;2332;38.646;-9.154;2022-07-29T11:55:03;2.50;;;2.30;;
4638;SDS011;2332;38.646;-9.154;2022-07-29T11:57:30;4.23;;;3.00;;
4638;SDS011;2332;38.646;-9.154;2022-07-29T11:59:57;11.63;;;2.93;;
4638;SDS011;2332;38.646;-9.154;2022-07-29T12:02:23;4.20;;;2.90;;
4638;SDS011;2332;38.646;-9.154;2022-07-29T12:04:52;3.17;;;2.60;;
4638;SDS011;2332;38.646;-9.154;2022-07-29T12:07:32;2.60;;;2.40;;
4638;SDS011;2332;38.646;-9.154;2022-07-29T12:10:00;7.00;;;2.50;;
4638;SDS011;2332;38.646;-9.154;2022-07-29T12:12:26;3.33;;;2.93;;
4638;SDS011;2332;38.646;-9.154;2022-07-29T12:14:52;4.27;;;2.57;;
4638;SDS011;2332;38.646;-9.154;2022-07-29T12:17:26;2.80;;;2.60;;
4638;SDS011;2332;38.646;-9.154;2022-07-29T12:19:53;3.53;;;2.20;;
4638;SDS011;2332;38.646;-9.154;2022-07-29T12:22:33;4.40;;;2.10;;
4638;SDS011;2332;38.646;-9.154;2022-07-29T12:25:11;3.00;;;2.77;;
4638;SDS011;2332;38.646;-9.154;2022-07-29T12:27:39;3.90;;;2.13;;
4638;SDS011;2332;38.646;-9.154;2022-07-29T12:30:06;2.53;;;2.20;;
4638;SDS011;2332;38.646;-9.154;2022-07-29T12:32:37;2.03;;;1.93;;
4638;SDS011;2332;38.646;-9.154;2022-07-29T12:35:11;5.97;;;2.40;;
4638;SDS011;2332;38.646;-9.154;2022-07-29T12:37:38;7.20;;;3.20;;
4638;SDS011;2332;38.646;-9.154;2022-07-29T12:40:05;3.33;;;2.80;;
4638;SDS011;2332;38.646;-9.154;2022-07-29T12:42:32;7.87;;;2.60;;
4638;SDS011;2332;38.646;-9.154;2022-07-29T12:44:58;3.90;;;2.40;;
4638;SDS011;2332;38.646;-9.154;2022-07-29T12:47:24;2.40;;;2.23;;
4638;SDS011;2332;38.646;-9.154;2022-07-29T12:49:50;2.60;;;2.40;;
4638;SDS011;2332;38.646;-9.154;2022-07-29T12:52:26;2.90;;;2.07;;
4638;SDS011;2332;38.646;-9.154;2022-07-29T12:54:53;2.60;;;2.23;;
4638;SDS011;2332;38.646;-9.154;2022-07-29T12:57:19;4.40;;;2.27;;
4638;SDS011;2332;38.646;-9.154;2022-07-29T12:59:45;4.47;;;1.90;;
4638;SDS011;2332;38.646;-9.154;2022-07-29T13:02:28;3.23;;;2.23;;
4638;SDS011;2332;38.646;-9.154;2022-07-29T13:04:57;2.00;;;1.90;;
4638;SDS011;2332;38.646;-9.154;2022-07-29T13:07:26;4.40;;;2.07;;
4638;SDS011;2332;38.646;-9.154;2022-07-29T13:09:54;2.20;;;1.97;;
4638;SDS011;2332;38.646;-9.154;2022-07-29T13:12:34;2.27;;;2.00;;
4638;SDS011;2332;38.646;-9.154;2022-07-29T13:15:01;2.00;;;1.80;;
4638;SDS011;2332;38.646;-9.154;2022-07-29T13:17:41;4.30;;;1.97;;
4638;SDS011;2332;38.646;-9.154;2022-07-29T13:20:11;3.10;;;2.40;;
4638;SDS011;2332;38.646;-9.154;2022-07-29T13:22:38;4.50;;;1.93;;
4638;SDS011;2332;38.646;-9.154;2022-07-29T13:25:04;3.63;;;2.20;;
4638;SDS011;2332;38.646;-9.154;2022-07-29T13:27:32;4.40;;;2.30;;
4638;SDS011;2332;38.646;-9.154;2022-07-29T13:30:02;3.97;;;2.90;;
4638;SDS011;2332;38.646;-9.154;2022-07-29T13:32:29;4.57;;;2.90;;
4638;SDS011;2332;38.646;-9.154;2022-07-29T13:34:56;4.80;;;2.73;;
4638;SDS011;2332;38.646;-9.154;2022-07-29T13:37:23;3.60;;;3.00;;
4638;SDS011;2332;38.646;-9.154;2022-07-29T13:39:49;6.63;;;2.77;;
4638;SDS011;2332;38.646;-9.154;2022-07-29T13:42:14;5.27;;;2.67;;
4638;SDS011;2332;38.646;-9.154;2022-07-29T13:44:40;6.00;;;2.90;;
4638;SDS011;2332;38.646;-9.154;2022-07-29T13:47:07;5.13;;;3.00;;
4638;SDS011;2332;38.646;-9.154;2022-07-29T13:49:32;4.60;;;2.90;;
4638;SDS011;2332;38.646;-9.154;2022-07-29T13:52:01;6.10;;;2.90;;
4638;SDS011;2332;38.646;-9.154;2022-07-29T13:54:28;6.10;;;3.33;;
4638;SDS011;2332;38.646;-9.154;2022-07-29T13:56:54;7.40;;;3.30;;
4638;SDS011;2332;38.646;-9.154;2022-07-29T13:59:19;5.13;;;2.47;;
4638;SDS011;2332;38.646;-9.154;2022-07-29T14:01:45;3.57;;;2.90;;
4638;SDS011;2332;38.646;-9.154;2022-07-29T14:04:11;4.33;;;2.83;;
4638;SDS011;2332;38.646;-9.154;2022-07-29T14:06:36;2.77;;;2.57;;
4638;SDS011;2332;38.646;-9.154;2022-07-29T14:09:03;4.00;;;2.60;;
4638;SDS011;2332;38.646;-9.154;2022-07-29T14:11:34;3.43;;;2.57;;
4638;SDS011;2332;38.646;-9.154;2022-07-29T14:14:00;2.43;;;2.20;;
4638;SDS011;2332;38.646;-9.154;2022-07-29T14:16:25;7.13;;;2.60;;
4638;SDS011;2332;38.646;-9.154;2022-07-29T14:18:51;8.20;;;2.67;;
4638;SDS011;2332;38.646;-9.154;2022-07-29T14:21:17;7.20;;;2.40;;
4638;SDS011;2332;38.646;-9.154;2022-07-29T14:23:43;2.80;;;2.60;;
4638;SDS011;2332;38.646;-9.154;2022-07-29T14:26:09;7.87;;;2.50;;
4638;SDS011;2332;38.646;-9.154;2022-07-29T14:28:34;3.17;;;2.50;;
4638;SDS011;2332;38.646;-9.154;2022-07-29T14:31:00;5.57;;;2.60;;
4638;SDS011;2332;38.646;-9.154;2022-07-29T14:33:25;3.83;;;2.73;;
4638;SDS011;2332;38.646;-9.154;2022-07-29T14:35:51;3.20;;;3.00;;
4638;SDS011;2332;38.646;-9.154;2022-07-29T14:38:17;3.30;;;3.00;;
4638;SDS011;2332;38.646;-9.154;2022-07-29T14:40:42;3.37;;;2.50;;
4638;SDS011;2332;38.646;-9.154;2022-07-29T14:43:08;3.60;;;2.80;;
4638;SDS011;2332;38.646;-9.154;2022-07-29T14:45:33;3.57;;;3.27;;
4638;SDS011;2332;38.646;-9.154;2022-07-29T14:47:59;9.30;;;2.70;;
4638;SDS011;2332;38.646;-9.154;2022-07-29T14:50:25;2.80;;;2.70;;
4638;SDS011;2332;38.646;-9.154;2022-07-29T14:52:51;3.30;;;2.90;;
4638;SDS011;2332;38.646;-9.154;2022-07-29T14:55:17;2.70;;;2.50;;
4638;SDS011;2332;38.646;-9.154;2022-07-29T14:57:43;5.00;;;3.00;;
4638;SDS011;2332;38.646;-9.154;2022-07-29T15:00:08;3.60;;;2.30;;
4638;SDS011;2332;38.646;-9.154;2022-07-29T15:02:35;2.33;;;2.23;;
4638;SDS011;2332;38.646;-9.154;2022-07-29T15:05:01;7.67;;;2.30;;
4638;SDS011;2332;38.646;-9.154;2022-07-29T15:07:27;2.60;;;2.40;;
4638;SDS011;2332;38.646;-9.154;2022-07-29T15:09:53;4.20;;;2.70;;
4638;SDS011;2332;38.646;-9.154;2022-07-29T15:12:20;3.40;;;3.10;;
4638;SDS011;2332;38.646;-9.154;2022-07-29T15:14:49;3.30;;;2.40;;
4638;SDS011;2332;38.646;-9.154;2022-07-29T15:17:14;5.33;;;2.70;;
4638;SDS011;2332;38.646;-9.154;2022-07-29T15:19:40;2.40;;;2.30;;
4638;SDS011;2332;38.646;-9.154;2022-07-29T15:22:09;2.60;;;2.50;;
4638;SDS011;2332;38.646;-9.154;2022-07-29T15:24:35;2.50;;;2.20;;
4638;SDS011;2332;38.646;-9.154;2022-07-29T15:27:00;6.60;;;2.30;;
4638;SDS011;2332;38.646;-9.154;2022-07-29T15:29:26;2.90;;;2.70;;
4638;SDS011;2332;38.646;-9.154;2022-07-29T15:31:51;3.93;;;2.30;;
4638;SDS011;2332;38.646;-9.154;2022-07-29T15:34:17;4.10;;;2.83;;
4638;SDS011;2332;38.646;-9.154;2022-07-29T15:36:42;2.43;;;2.23;;
4638;SDS011;2332;38.646;-9.154;2022-07-29T15:39:08;2.60;;;2.23;;
4638;SDS011;2332;38.646;-9.154;2022-07-29T15:41:34;4.87;;;2.43;;
4638;SDS011;2332;38.646;-9.154;2022-07-29T15:43:59;3.70;;;2.47;;
4638;SDS011;2332;38.646;-9.154;2022-07-29T15:46:25;3.20;;;2.47;;
4638;SDS011;2332;38.646;-9.154;2022-07-29T15:49:09;2.80;;;2.60;;
4638;SDS011;2332;38.646;-9.154;2022-07-29T15:51:35;3.60;;;2.70;;
4638;SDS011;2332;38.646;-9.154;2022-07-29T15:54:01;4.10;;;2.73;;
4638;SDS011;2332;38.646;-9.154;2022-07-29T15:56:27;3.53;;;3.03;;
4638;SDS011;2332;38.646;-9.154;2022-07-29T15:58:54;2.97;;;2.73;;
4638;SDS011;2332;38.646;-9.154;2022-07-29T16:01:19;5.57;;;2.97;;
4638;SDS011;2332;38.646;-9.154;2022-07-29T16:03:45;4.90;;;2.83;;
4638;SDS011;2332;38.646;-9.154;2022-07-29T16:06:10;3.53;;;2.70;;
4638;SDS011;2332;38.646;-9.154;2022-07-29T16:08:36;4.70;;;3.00;;